CST,Max TemperatureF,Mean TemperatureF,Min TemperatureF,Max Dew PointF,MeanDew PointF,Min DewpointF,Max Humidity, Mean Humidity, Min Humidity, Max Sea Level PressureIn, Mean Sea Level PressureIn, Min Sea Level PressureIn, Max VisibilityMiles, Mean VisibilityMiles, Min VisibilityMiles, Max Wind SpeedMPH, Mean Wind SpeedMPH, Max Gust SpeedMPH,PrecipitationIn, CloudCover, Events, WindDirDegrees
2013-1-1,25,18,11,19,12,7,88,72,56,30.31,30.26,30.14,10,10,7,15,6,20,0.00,3,,350
2013-1-2,32,19,6,21,14,4,92,75,58,30.29,30.24,30.18,10,9,6,10,6,13,0.00,1,,214
2013-1-3,38,29,20,27,22,18,92,76,59,30.43,30.36,30.22,10,9,4,15,6,20,0.00,2,,285
2013-1-4,39,28,17,24,20,14,92,70,40,30.43,30.37,30.30,10,10,7,16,7,,0.00,0,,221
2013-1-5,39,32,25,34,29,20,92,78,63,30.30,30.20,30.11,10,10,5,18,8,22,0.02,6,Rain-Snow,201
2013-1-6,36,30,23,28,20,19,82,67,52,30.39,30.31,30.13,10,10,8,21,9,28,0.00,3,,284
2013-1-7,50,35,20,25,21,17,84,62,39,30.37,30.24,30.12,10,10,10,17,10,20,0.00,0,,173
2013-1-8,54,42,30,34,26,22,72,52,32,30.18,30.11,30.05,10,10,10,20,10,23,0.00,2,,182
2013-1-9,56,45,33,36,32,23,92,64,36,30.45,30.37,30.20,10,10,7,13,6,17,0.00,0,,7
2013-1-10,48,44,39,47,41,21,100,69,37,30.38,30.01,29.76,10,4,0,22,11,28,0.25,7,Fog-Rain,123
2013-1-11,63,54,45,48,46,44,100,78,55,29.82,29.77,29.70,10,8,0,25,14,30,0.00,4,Fog,185
2013-1-12,57,42,27,45,28,19,92,67,42,30.02,29.95,29.77,10,7,1,23,13,28,0.36,6,Rain-Snow,333
2013-1-13,27,20,12,25,15,9,92,80,68,30.41,30.18,29.97,10,9,1,17,10,22,T,6,Snow,316
2013-1-14,28,20,12,13,10,7,88,67,46,30.51,30.45,30.40,10,10,10,10,5,14,0.00,0,,5
2013-1-15,30,22,13,19,14,8,81,70,58,30.43,30.33,30.20,10,10,10,10,4,13,0.00,3,,58
2013-1-16,42,28,14,22,17,8,80,61,41,30.19,30.12,30.03,10,10,10,20,8,25,0.00,1,,240
2013-1-17,42,34,26,28,23,19,85,63,41,30.49,30.38,30.16,10,10,10,20,8,23,0.00,1,,332
2013-1-18,56,41,25,27,24,19,81,57,32,30.48,30.28,30.10,10,10,10,26,13,32,0.00,0,,188
2013-1-19,59,50,40,36,32,26,65,53,40,30.20,30.06,29.96,10,10,10,24,14,31,0.00,0,,243
2013-1-20,42,32,22,29,15,8,75,57,38,30.36,30.32,30.21,10,10,10,17,10,21,0.00,2,,357
2013-1-21,24,20,15,11,3,-8,74,53,31,30.42,30.40,30.35,10,10,10,23,11,28,0.00,5,,316
2013-1-22,23,19,15,7,2,-1,67,53,39,30.48,30.40,30.35,10,10,10,9,5,12,0.00,7,,71
2013-1-23,45,35,25,21,15,8,84,61,37,30.37,30.27,30.15,10,10,10,14,8,,0.00,0,,350
2013-1-24,27,20,12,10,5,1,67,52,36,30.58,30.41,30.20,10,10,10,21,12,25,0.00,3,,83
2013-1-25,43,35,26,20,15,5,57,46,34,30.26,30.19,30.15,10,10,10,16,8,21,0.00,4,,278
2013-1-26,46,35,24,22,18,15,75,54,33,30.38,30.29,30.23,10,10,10,13,8,17,0.00,0,,88
2013-1-27,57,45,32,52,39,17,93,72,51,30.22,30.01,29.87,10,8,2,23,15,32,0.15,7,Rain,154
2013-1-28,77,66,54,60,55,52,93,74,54,29.92,29.86,29.77,10,10,7,28,12,33,0.00,5,,178
2013-1-29,70,60,49,59,55,48,100,85,70,29.74,29.58,29.43,10,8,1,30,13,36,1.53,7,Rain-Thunderstorm,193
2013-1-30,51,38,25,50,30,15,100,82,63,29.97,29.62,29.37,10,8,1,29,16,37,0.07,8,Rain-Snow,292
2013-1-31,32,21,10,18,10,-2,74,62,50,30.47,30.15,29.94,10,10,10,30,15,35,0.00,5,,283